sensor_id;sensor_type;location;lat;lon;timestamp;P1;durP1;ratioP1;P2;durP2;ratioP2
62633;SDS011;48704;50.534;6.442;2023-07-30T00:01:46;5.95;;;2.47;;
62633;SDS011;48704;50.534;6.442;2023-07-30T00:04:12;7.90;;;2.75;;
62633;SDS011;48704;50.534;6.442;2023-07-30T00:06:37;5.55;;;2.45;;
62633;SDS011;48704;50.534;6.442;2023-07-30T00:09:02;4.68;;;2.10;;
62633;SDS011;48704;50.534;6.442;2023-07-30T00:11:28;4.55;;;2.38;;
62633;SDS011;48704;50.534;6.442;2023-07-30T00:13:54;4.75;;;2.15;;
62633;SDS011;48704;50.534;6.442;2023-07-30T00:16:19;4.93;;;1.60;;
62633;SDS011;48704;50.534;6.442;2023-07-30T00:18:44;6.18;;;2.10;;
62633;SDS011;48704;50.534;6.442;2023-07-30T00:21:10;6.22;;;2.65;;
62633;SDS011;48704;50.534;6.442;2023-07-30T00:23:35;5.07;;;2.58;;
62633;SDS011;48704;50.534;6.442;2023-07-30T00:26:01;7.72;;;2.70;;
62633;SDS011;48704;50.534;6.442;2023-07-30T00:28:26;3.97;;;2.35;;
62633;SDS011;48704;50.534;6.442;2023-07-30T00:30:51;6.45;;;1.95;;
62633;SDS011;48704;50.534;6.442;2023-07-30T00:33:16;4.32;;;1.95;;
62633;SDS011;48704;50.534;6.442;2023-07-30T00:35:42;3.17;;;2.00;;
62633;SDS011;48704;50.534;6.442;2023-07-30T00:38:07;4.90;;;2.20;;
62633;SDS011;48704;50.534;6.442;2023-07-30T00:40:32;4.63;;;1.80;;
62633;SDS011;48704;50.534;6.442;2023-07-30T00:42:57;5.57;;;2.17;;
62633;SDS011;48704;50.534;6.442;2023-07-30T00:45:23;8.23;;;2.28;;
62633;SDS011;48704;50.534;6.442;2023-07-30T00:47:48;3.58;;;1.98;;
62633;SDS011;48704;50.534;6.442;2023-07-30T00:50:14;7.25;;;2.10;;
62633;SDS011;48704;50.534;6.442;2023-07-30T00:52:41;6.55;;;2.67;;
62633;SDS011;48704;50.534;6.442;2023-07-30T00:55:08;4.45;;;2.45;;
62633;SDS011;48704;50.534;6.442;2023-07-30T00:57:34;5.95;;;2.42;;
62633;SDS011;48704;50.534;6.442;2023-07-30T01:00:02;5.30;;;2.42;;
62633;SDS011;48704;50.534;6.442;2023-07-30T01:02:31;6.82;;;2.45;;
62633;SDS011;48704;50.534;6.442;2023-07-30T01:04:56;3.88;;;1.77;;
62633;SDS011;48704;50.534;6.442;2023-07-30T01:07:24;4.68;;;2.13;;
62633;SDS011;48704;50.534;6.442;2023-07-30T01:09:50;8.77;;;2.47;;
62633;SDS011;48704;50.534;6.442;2023-07-30T01:12:15;6.00;;;2.50;;
62633;SDS011;48704;50.534;6.442;2023-07-30T01:14:41;5.13;;;2.40;;
62633;SDS011;48704;50.534;6.442;2023-07-30T01:17:06;5.55;;;2.55;;
62633;SDS011;48704;50.534;6.442;2023-07-30T01:19:32;5.65;;;2.03;;
62633;SDS011;48704;50.534;6.442;2023-07-30T01:21:57;10.02;;;2.58;;
62633;SDS011;48704;50.534;6.442;2023-07-30T01:24:23;10.75;;;2.60;;
62633;SDS011;48704;50.534;6.442;2023-07-30T01:26:52;7.03;;;2.55;;
62633;SDS011;48704;50.534;6.442;2023-07-30T01:29:22;4.95;;;2.00;;
62633;SDS011;48704;50.534;6.442;2023-07-30T01:31:54;5.97;;;2.22;;
62633;SDS011;48704;50.534;6.442;2023-07-30T01:34:25;4.68;;;1.85;;
62633;SDS011;48704;50.534;6.442;2023-07-30T01:36:53;6.88;;;2.20;;
62633;SDS011;48704;50.534;6.442;2023-07-30T01:39:19;3.90;;;2.30;;
62633;SDS011;48704;50.534;6.442;2023-07-30T01:41:45;7.22;;;1.90;;
62633;SDS011;48704;50.534;6.442;2023-07-30T01:44:10;4.72;;;1.95;;
62633;SDS011;48704;50.534;6.442;2023-07-30T01:46:35;4.38;;;2.15;;
62633;SDS011;48704;50.534;6.442;2023-07-30T01:49:01;7.03;;;2.00;;
62633;SDS011;48704;50.534;6.442;2023-07-30T01:51:26;6.95;;;2.70;;
62633;SDS011;48704;50.534;6.442;2023-07-30T01:53:51;7.95;;;2.17;;
62633;SDS011;48704;50.534;6.442;2023-07-30T01:56:16;8.75;;;2.45;;
62633;SDS011;48704;50.534;6.442;2023-07-30T01:58:42;8.02;;;2.58;;
62633;SDS011;48704;50.534;6.442;2023-07-30T02:01:07;10.15;;;2.50;;
62633;SDS011;48704;50.534;6.442;2023-07-30T02:03:32;5.63;;;1.90;;
62633;SDS011;48704;50.534;6.442;2023-07-30T02:05:58;7.90;;;2.38;;
62633;SDS011;48704;50.534;6.442;2023-07-30T02:08:23;3.20;;;1.92;;
62633;SDS011;48704;50.534;6.442;2023-07-30T02:10:55;5.97;;;2.30;;
62633;SDS011;48704;50.534;6.442;2023-07-30T02:13:23;5.75;;;2.45;;
62633;SDS011;48704;50.534;6.442;2023-07-30T02:15:49;7.43;;;2.25;;
62633;SDS011;48704;50.534;6.442;2023-07-30T02:18:15;5.82;;;2.03;;
62633;SDS011;48704;50.534;6.442;2023-07-30T02:20:40;3.53;;;2.00;;
62633;SDS011;48704;50.534;6.442;2023-07-30T02:23:06;7.35;;;2.47;;
62633;SDS011;48704;50.534;6.442;2023-07-30T02:25:32;9.13;;;2.40;;
62633;SDS011;48704;50.534;6.442;2023-07-30T02:27:58;5.47;;;2.40;;
62633;SDS011;48704;50.534;6.442;2023-07-30T02:30:24;7.90;;;2.47;;
62633;SDS011;48704;50.534;6.442;2023-07-30T02:32:49;5.88;;;2.35;;
62633;SDS011;48704;50.534;6.442;2023-07-30T02:35:15;6.32;;;1.98;;
62633;SDS011;48704;50.534;6.442;2023-07-30T02:37:40;8.77;;;2.42;;
62633;SDS011;48704;50.534;6.442;2023-07-30T02:40:05;6.03;;;2.20;;
62633;SDS011;48704;50.534;6.442;2023-07-30T02:42:31;7.25;;;2.20;;
62633;SDS011;48704;50.534;6.442;2023-07-30T02:44:56;11.70;;;2.97;;
62633;SDS011;48704;50.534;6.442;2023-07-30T02:47:22;4.38;;;2.08;;
62633;SDS011;48704;50.534;6.442;2023-07-30T02:49:47;6.05;;;2.50;;
62633;SDS011;48704;50.534;6.442;2023-07-30T02:52:12;5.65;;;2.35;;
62633;SDS011;48704;50.534;6.442;2023-07-30T02:54:37;6.18;;;2.40;;
62633;SDS011;48704;50.534;6.442;2023-07-30T02:57:03;6.57;;;2.70;;
62633;SDS011;48704;50.534;6.442;2023-07-30T02:59:28;6.05;;;2.40;;
62633;SDS011;48704;50.534;6.442;2023-07-30T03:01:54;8.23;;;2.60;;
62633;SDS011;48704;50.534;6.442;2023-07-30T03:04:19;7.22;;;2.75;;
62633;SDS011;48704;50.534;6.442;2023-07-30T03:06:44;6.32;;;2.65;;
62633;SDS011;48704;50.534;6.442;2023-07-30T03:09:09;6.63;;;2.88;;
62633;SDS011;48704;50.534;6.442;2023-07-30T03:11:35;8.55;;;2.85;;
62633;SDS011;48704;50.534;6.442;2023-07-30T03:14:00;8.10;;;2.38;;
62633;SDS011;48704;50.534;6.442;2023-07-30T03:16:25;8.63;;;2.78;;
62633;SDS011;48704;50.534;6.442;2023-07-30T03:18:51;7.15;;;2.67;;
62633;SDS011;48704;50.534;6.442;2023-07-30T03:21:16;9.35;;;2.33;;
62633;SDS011;48704;50.534;6.442;2023-07-30T03:23:41;5.82;;;2.13;;
62633;SDS011;48704;50.534;6.442;2023-07-30T03:26:09;6.45;;;2.50;;
62633;SDS011;48704;50.534;6.442;2023-07-30T03:28:34;3.75;;;2.20;;
62633;SDS011;48704;50.534;6.442;2023-07-30T03:31:00;5.07;;;1.80;;
62633;SDS011;48704;50.534;6.442;2023-07-30T03:33:25;5.40;;;1.58;;
62633;SDS011;48704;50.534;6.442;2023-07-30T03:35:50;4.85;;;1.85;;
62633;SDS011;48704;50.534;6.442;2023-07-30T03:38:15;12.18;;;2.30;;
62633;SDS011;48704;50.534;6.442;2023-07-30T03:40:41;6.43;;;2.05;;
62633;SDS011;48704;50.534;6.442;2023-07-30T03:43:06;7.47;;;1.77;;
62633;SDS011;48704;50.534;6.442;2023-07-30T03:45:31;5.38;;;1.60;;
62633;SDS011;48704;50.534;6.442;2023-07-30T03:47:57;3.42;;;1.75;;
62633;SDS011;48704;50.534;6.442;2023-07-30T03:50:23;4.63;;;1.80;;
62633;SDS011;48704;50.534;6.442;2023-07-30T03:52:48;5.28;;;2.13;;
62633;SDS011;48704;50.534;6.442;2023-07-30T03:55:13;5.55;;;2.30;;
62633;SDS011;48704;50.534;6.442;2023-07-30T03:57:40;6.18;;;1.80;;
62633;SDS011;48704;50.534;6.442;2023-07-30T04:00:05;5.72;;;2.00;;
62633;SDS011;48704;50.534;6.442;2023-07-30T04:02:31;8.07;;;1.98;;
62633;SDS011;48704;50.534;6.442;2023-07-30T04:04:56;4.22;;;1.80;;
62633;SDS011;48704;50.534;6.442;2023-07-30T04:07:22;5.20;;;1.90;;
62633;SDS011;48704;50.534;6.442;2023-07-30T04:09:47;11.32;;;2.13;;
62633;SDS011;48704;50.534;6.442;2023-07-30T04:12:12;9.52;;;2.25;;
62633;SDS011;48704;50.534;6.442;2023-07-30T04:14:37;7.85;;;2.20;;
62633;SDS011;48704;50.534;6.442;2023-07-30T04:17:03;6.97;;;1.80;;
62633;SDS011;48704;50.534;6.442;2023-07-30T04:19:28;5.40;;;2.15;;
62633;SDS011;48704;50.534;6.442;2023-07-30T04:21:53;5.45;;;1.88;;
62633;SDS011;48704;50.534;6.442;2023-07-30T04:24:19;7.90;;;2.55;;
62633;SDS011;48704;50.534;6.442;2023-07-30T04:26:44;6.72;;;2.00;;
62633;SDS011;48704;50.534;6.442;2023-07-30T04:29:09;7.88;;;1.95;;
62633;SDS011;48704;50.534;6.442;2023-07-30T04:31:35;7.07;;;2.13;;
62633;SDS011;48704;50.534;6.442;2023-07-30T04:34:00;7.70;;;2.45;;
62633;SDS011;48704;50.534;6.442;2023-07-30T04:36:26;7.90;;;2.42;;
62633;SDS011;48704;50.534;6.442;2023-07-30T04:38:51;6.72;;;2.40;;
62633;SDS011;48704;50.534;6.442;2023-07-30T04:41:16;9.13;;;2.25;;
62633;SDS011;48704;50.534;6.442;2023-07-30T04:43:43;7.38;;;2.20;;
62633;SDS011;48704;50.534;6.442;2023-07-30T04:46:09;9.02;;;2.35;;
62633;SDS011;48704;50.534;6.442;2023-07-30T04:48:34;9.18;;;2.42;;
62633;SDS011;48704;50.534;6.442;2023-07-30T04:50:59;9.50;;;2.35;;
62633;SDS011;48704;50.534;6.442;2023-07-30T04:53:25;5.38;;;2.28;;
62633;SDS011;48704;50.534;6.442;2023-07-30T04:55:56;6.93;;;2.63;;
62633;SDS011;48704;50.534;6.442;2023-07-30T04:58:22;10.90;;;2.47;;
62633;SDS011;48704;50.534;6.442;2023-07-30T05:00:48;5.00;;;1.95;;
62633;SDS011;48704;50.534;6.442;2023-07-30T05:03:14;8.73;;;2.13;;
62633;SDS011;48704;50.534;6.442;2023-07-30T05:05:40;9.35;;;2.42;;
62633;SDS011;48704;50.534;6.442;2023-07-30T05:08:05;5.28;;;2.17;;
62633;SDS011;48704;50.534;6.442;2023-07-30T05:10:31;6.38;;;2.00;;
62633;SDS011;48704;50.534;6.442;2023-07-30T05:12:56;4.38;;;1.83;;
62633;SDS011;48704;50.534;6.442;2023-07-30T05:15:21;4.85;;;2.10;;
62633;SDS011;48704;50.534;6.442;2023-07-30T05:17:46;5.05;;;2.10;;
62633;SDS011;48704;50.534;6.442;2023-07-30T05:20:12;6.03;;;2.17;;
62633;SDS011;48704;50.534;6.442;2023-07-30T05:22:37;9.50;;;2.35;;
62633;SDS011;48704;50.534;6.442;2023-07-30T05:25:02;6.10;;;2.15;;
62633;SDS011;48704;50.534;6.442;2023-07-30T05:27:28;9.98;;;2.55;;
62633;SDS011;48704;50.534;6.442;2023-07-30T05:29:54;13.13;;;2.80;;
62633;SDS011;48704;50.534;6.442;2023-07-30T05:32:19;6.05;;;2.13;;
62633;SDS011;48704;50.534;6.442;2023-07-30T05:34:45;6.03;;;2.13;;
62633;SDS011;48704;50.534;6.442;2023-07-30T05:37:10;7.93;;;2.28;;
62633;SDS011;48704;50.534;6.442;2023-07-30T05:39:35;8.00;;;3.13;;
62633;SDS011;48704;50.534;6.442;2023-07-30T05:42:00;6.50;;;2.40;;
62633;SDS011;48704;50.534;6.442;2023-07-30T05:44:26;7.40;;;2.25;;
62633;SDS011;48704;50.534;6.442;2023-07-30T05:46:51;7.00;;;2.60;;
62633;SDS011;48704;50.534;6.442;2023-07-30T05:49:16;7.95;;;2.13;;
62633;SDS011;48704;50.534;6.442;2023-07-30T05:51:41;12.52;;;2.90;;
62633;SDS011;48704;50.534;6.442;2023-07-30T05:54:07;5.07;;;2.47;;
62633;SDS011;48704;50.534;6.442;2023-07-30T05:56:32;8.02;;;2.53;;
62633;SDS011;48704;50.534;6.442;2023-07-30T05:58:57;5.72;;;2.58;;
62633;SDS011;48704;50.534;6.442;2023-07-30T06:01:23;5.80;;;3.00;;
62633;SDS011;48704;50.534;6.442;2023-07-30T06:03:48;4.43;;;2.42;;
62633;SDS011;48704;50.534;6.442;2023-07-30T06:06:14;3.33;;;2.17;;
62633;SDS011;48704;50.534;6.442;2023-07-30T06:08:39;5.45;;;2.30;;
62633;SDS011;48704;50.534;6.442;2023-07-30T06:11:05;6.70;;;2.22;;
62633;SDS011;48704;50.534;6.442;2023-07-30T06:13:30;3.15;;;1.80;;
62633;SDS011;48704;50.534;6.442;2023-07-30T06:15:55;4.65;;;2.05;;
62633;SDS011;48704;50.534;6.442;2023-07-30T06:18:21;4.88;;;1.83;;
62633;SDS011;48704;50.534;6.442;2023-07-30T06:20:46;4.60;;;1.90;;
62633;SDS011;48704;50.534;6.442;2023-07-30T06:23:11;4.80;;;1.40;;
62633;SDS011;48704;50.534;6.442;2023-07-30T06:25:37;7.28;;;1.77;;
62633;SDS011;48704;50.534;6.442;2023-07-30T06:28:02;7.25;;;1.45;;
62633;SDS011;48704;50.534;6.442;2023-07-30T06:30:28;6.35;;;1.88;;
62633;SDS011;48704;50.534;6.442;2023-07-30T06:32:53;6.15;;;1.63;;
62633;SDS011;48704;50.534;6.442;2023-07-30T06:35:18;2.97;;;1.38;;
62633;SDS011;48704;50.534;6.442;2023-07-30T06:37:44;6.70;;;1.75;;
62633;SDS011;48704;50.534;6.442;2023-07-30T06:40:09;3.42;;;1.10;;
62633;SDS011;48704;50.534;6.442;2023-07-30T06:42:34;4.18;;;1.42;;
62633;SDS011;48704;50.534;6.442;2023-07-30T06:45:00;5.75;;;1.30;;
62633;SDS011;48704;50.534;6.442;2023-07-30T06:47:25;5.65;;;1.73;;
62633;SDS011;48704;50.534;6.442;2023-07-30T06:49:50;5.75;;;1.85;;
62633;SDS011;48704;50.534;6.442;2023-07-30T06:52:16;3.55;;;1.70;;
62633;SDS011;48704;50.534;6.442;2023-07-30T06:54:41;4.75;;;1.60;;
62633;SDS011;48704;50.534;6.442;2023-07-30T06:57:06;5.40;;;1.90;;
62633;SDS011;48704;50.534;6.442;2023-07-30T06:59:31;7.20;;;2.13;;
62633;SDS011;48704;50.534;6.442;2023-07-30T07:01:57;4.72;;;1.90;;
62633;SDS011;48704;50.534;6.442;2023-07-30T07:04:22;7.68;;;1.80;;
62633;SDS011;48704;50.534;6.442;2023-07-30T07:06:47;5.05;;;1.65;;
62633;SDS011;48704;50.534;6.442;2023-07-30T07:09:13;6.25;;;1.48;;
62633;SDS011;48704;50.534;6.442;2023-07-30T07:11:38;7.22;;;1.95;;
62633;SDS011;48704;50.534;6.442;2023-07-30T07:14:04;9.50;;;2.10;;
62633;SDS011;48704;50.534;6.442;2023-07-30T07:16:29;7.22;;;4.13;;
62633;SDS011;48704;50.534;6.442;2023-07-30T07:18:54;8.35;;;2.10;;
62633;SDS011;48704;50.534;6.442;2023-07-30T07:21:19;10.10;;;1.98;;
62633;SDS011;48704;50.534;6.442;2023-07-30T07:23:45;9.77;;;2.20;;
62633;SDS011;48704;50.534;6.442;2023-07-30T07:26:10;7.63;;;1.88;;
62633;SDS011;48704;50.534;6.442;2023-07-30T07:28:36;12.93;;;2.60;;
62633;SDS011;48704;50.534;6.442;2023-07-30T07:31:01;6.00;;;2.08;;
62633;SDS011;48704;50.534;6.442;2023-07-30T07:33:26;8.73;;;1.95;;
62633;SDS011;48704;50.534;6.442;2023-07-30T07:36:01;6.40;;;2.20;;
62633;SDS011;48704;50.534;6.442;2023-07-30T07:38:27;7.30;;;2.13;;
62633;SDS011;48704;50.534;6.442;2023-07-30T07:40:52;7.93;;;2.65;;
62633;SDS011;48704;50.534;6.442;2023-07-30T07:43:18;5.90;;;1.90;;
62633;SDS011;48704;50.534;6.442;2023-07-30T07:45:43;10.52;;;3.25;;
62633;SDS011;48704;50.534;6.442;2023-07-30T07:48:08;7.60;;;2.30;;
62633;SDS011;48704;50.534;6.442;2023-07-30T07:50:34;9.00;;;2.67;;
62633;SDS011;48704;50.534;6.442;2023-07-30T07:52:59;9.80;;;2.53;;
62633;SDS011;48704;50.534;6.442;2023-07-30T07:55:24;9.05;;;2.25;;
62633;SDS011;48704;50.534;6.442;2023-07-30T07:57:50;7.65;;;1.95;;
62633;SDS011;48704;50.534;6.442;2023-07-30T08:00:17;5.45;;;2.28;;
62633;SDS011;48704;50.534;6.442;2023-07-30T08:02:42;12.00;;;2.35;;
62633;SDS011;48704;50.534;6.442;2023-07-30T08:05:08;8.48;;;2.45;;
62633;SDS011;48704;50.534;6.442;2023-07-30T08:07:33;12.50;;;2.55;;
62633;SDS011;48704;50.534;6.442;2023-07-30T08:09:58;7.78;;;2.60;;
62633;SDS011;48704;50.534;6.442;2023-07-30T08:12:24;8.43;;;2.10;;
62633;SDS011;48704;50.534;6.442;2023-07-30T08:14:49;10.48;;;2.15;;
62633;SDS011;48704;50.534;6.442;2023-07-30T08:17:15;9.52;;;2.15;;
62633;SDS011;48704;50.534;6.442;2023-07-30T08:19:41;6.38;;;1.80;;
62633;SDS011;48704;50.534;6.442;2023-07-30T08:22:06;8.80;;;2.22;;
62633;SDS011;48704;50.534;6.442;2023-07-30T08:24:31;8.27;;;2.88;;
62633;SDS011;48704;50.534;6.442;2023-07-30T08:26:57;13.65;;;2.42;;
62633;SDS011;48704;50.534;6.442;2023-07-30T08:29:22;7.28;;;1.80;;
62633;SDS011;48704;50.534;6.442;2023-07-30T08:31:47;8.25;;;2.25;;
62633;SDS011;48704;50.534;6.442;2023-07-30T08:34:13;10.23;;;2.38;;
62633;SDS011;48704;50.534;6.442;2023-07-30T08:36:38;4.60;;;1.98;;
62633;SDS011;48704;50.534;6.442;2023-07-30T08:39:03;6.68;;;2.10;;
62633;SDS011;48704;50.534;6.442;2023-07-30T08:41:29;6.90;;;1.90;;
62633;SDS011;48704;50.534;6.442;2023-07-30T08:43:54;9.77;;;2.28;;
62633;SDS011;48704;50.534;6.442;2023-07-30T08:46:20;4.10;;;1.70;;
62633;SDS011;48704;50.534;6.442;2023-07-30T08:48:45;10.57;;;1.95;;
62633;SDS011;48704;50.534;6.442;2023-07-30T08:51:11;11.63;;;2.60;;
62633;SDS011;48704;50.534;6.442;2023-07-30T08:53:37;8.63;;;1.90;;
62633;SDS011;48704;50.534;6.442;2023-07-30T08:56:04;13.32;;;2.20;;
62633;SDS011;48704;50.534;6.442;2023-07-30T08:58:31;6.43;;;2.17;;
62633;SDS011;48704;50.534;6.442;2023-07-30T09:00:58;6.82;;;1.95;;
62633;SDS011;48704;50.534;6.442;2023-07-30T09:03:27;7.13;;;2.20;;
62633;SDS011;48704;50.534;6.442;2023-07-30T09:05:54;8.80;;;1.83;;
62633;SDS011;48704;50.534;6.442;2023-07-30T09:08:19;11.38;;;2.33;;
62633;SDS011;48704;50.534;6.442;2023-07-30T09:10:45;10.18;;;1.98;;
62633;SDS011;48704;50.534;6.442;2023-07-30T09:13:11;10.93;;;2.05;;
62633;SDS011;48704;50.534;6.442;2023-07-30T09:15:45;9.65;;;2.10;;
62633;SDS011;48704;50.534;6.442;2023-07-30T09:18:13;8.30;;;2.28;;
62633;SDS011;48704;50.534;6.442;2023-07-30T09:20:43;7.30;;;1.88;;
62633;SDS011;48704;50.534;6.442;2023-07-30T09:23:08;12.70;;;2.42;;
62633;SDS011;48704;50.534;6.442;2023-07-30T09:25:35;7.30;;;2.05;;
62633;SDS011;48704;50.534;6.442;2023-07-30T09:28:01;6.72;;;1.80;;
62633;SDS011;48704;50.534;6.442;2023-07-30T09:30:27;7.32;;;2.25;;
62633;SDS011;48704;50.534;6.442;2023-07-30T09:32:53;8.18;;;1.73;;
62633;SDS011;48704;50.534;6.442;2023-07-30T09:35:20;9.27;;;1.75;;
62633;SDS011;48704;50.534;6.442;2023-07-30T09:37:46;11.77;;;2.10;;
62633;SDS011;48704;50.534;6.442;2023-07-30T09:40:12;7.70;;;1.55;;
62633;SDS011;48704;50.534;6.442;2023-07-30T09:42:38;8.38;;;1.95;;
62633;SDS011;48704;50.534;6.442;2023-07-30T09:45:08;7.75;;;2.30;;
62633;SDS011;48704;50.534;6.442;2023-07-30T09:47:45;5.55;;;1.30;;
62633;SDS011;48704;50.534;6.442;2023-07-30T09:50:11;13.63;;;1.90;;
62633;SDS011;48704;50.534;6.442;2023-07-30T09:52:37;8.50;;;1.75;;
62633;SDS011;48704;50.534;6.442;2023-07-30T09:55:04;4.97;;;1.80;;
62633;SDS011;48704;50.534;6.442;2023-07-30T09:57:32;6.05;;;1.75;;
62633;SDS011;48704;50.534;6.442;2023-07-30T09:59:57;6.05;;;1.83;;
62633;SDS011;48704;50.534;6.442;2023-07-30T10:02:23;5.43;;;1.67;;
62633;SDS011;48704;50.534;6.442;2023-07-30T10:04:50;9.10;;;1.83;;
62633;SDS011;48704;50.534;6.442;2023-07-30T10:07:18;6.28;;;1.42;;
62633;SDS011;48704;50.534;6.442;2023-07-30T10:09:45;9.55;;;1.77;;
62633;SDS011;48704;50.534;6.442;2023-07-30T10:12:14;9.55;;;1.88;;
62633;SDS011;48704;50.534;6.442;2023-07-30T10:14:42;8.20;;;1.67;;
62633;SDS011;48704;50.534;6.442;2023-07-30T10:17:09;6.57;;;1.45;;
62633;SDS011;48704;50.534;6.442;2023-07-30T10:19:36;4.47;;;1.52;;
62633;SDS011;48704;50.534;6.442;2023-07-30T10:24:37;4.28;;;1.20;;
62633;SDS011;48704;50.534;6.442;2023-07-30T10:27:06;8.38;;;1.40;;
62633;SDS011;48704;50.534;6.442;2023-07-30T10:29:39;5.70;;;1.30;;
62633;SDS011;48704;50.534;6.442;2023-07-30T10:32:08;6.93;;;1.45;;
62633;SDS011;48704;50.534;6.442;2023-07-30T10:34:44;5.00;;;1.85;;
62633;SDS011;48704;50.534;6.442;2023-07-30T10:37:10;3.28;;;1.15;;
62633;SDS011;48704;50.534;6.442;2023-07-30T10:39:36;5.80;;;1.40;;
62633;SDS011;48704;50.534;6.442;2023-07-30T10:42:01;4.43;;;1.10;;
62633;SDS011;48704;50.534;6.442;2023-07-30T10:44:27;5.90;;;1.35;;
62633;SDS011;48704;50.534;6.442;2023-07-30T10:46:56;5.90;;;1.25;;
62633;SDS011;48704;50.534;6.442;2023-07-30T10:49:23;4.28;;;1.75;;
62633;SDS011;48704;50.534;6.442;2023-07-30T10:51:49;7.85;;;1.60;;
62633;SDS011;48704;50.534;6.442;2023-07-30T10:54:16;5.82;;;1.48;;
62633;SDS011;48704;50.534;6.442;2023-07-30T10:56:42;5.05;;;1.20;;
62633;SDS011;48704;50.534;6.442;2023-07-30T10:59:07;6.53;;;1.33;;
62633;SDS011;48704;50.534;6.442;2023-07-30T11:01:36;5.85;;;1.45;;
62633;SDS011;48704;50.534;6.442;2023-07-30T11:04:11;8.70;;;1.58;;
62633;SDS011;48704;50.534;6.442;2023-07-30T11:06:38;4.15;;;1.20;;
62633;SDS011;48704;50.534;6.442;2023-07-30T11:09:04;6.82;;;1.88;;
62633;SDS011;48704;50.534;6.442;2023-07-30T11:11:30;5.22;;;1.27;;
62633;SDS011;48704;50.534;6.442;2023-07-30T11:13:56;4.75;;;1.40;;
62633;SDS011;48704;50.534;6.442;2023-07-30T11:16:22;8.10;;;1.58;;
62633;SDS011;48704;50.534;6.442;2023-07-30T11:18:47;3.63;;;0.98;;
62633;SDS011;48704;50.534;6.442;2023-07-30T11:21:14;4.72;;;1.10;;
62633;SDS011;48704;50.534;6.442;2023-07-30T11:23:41;5.00;;;1.38;;
62633;SDS011;48704;50.534;6.442;2023-07-30T11:26:07;8.50;;;1.38;;
62633;SDS011;48704;50.534;6.442;2023-07-30T11:28:35;4.28;;;1.25;;
62633;SDS011;48704;50.534;6.442;2023-07-30T11:31:05;6.18;;;1.20;;
62633;SDS011;48704;50.534;6.442;2023-07-30T11:33:32;6.82;;;1.40;;
62633;SDS011;48704;50.534;6.442;2023-07-30T11:36:00;4.18;;;1.20;;
62633;SDS011;48704;50.534;6.442;2023-07-30T11:38:27;6.38;;;1.30;;
62633;SDS011;48704;50.534;6.442;2023-07-30T11:40:54;6.32;;;1.35;;
62633;SDS011;48704;50.534;6.442;2023-07-30T11:43:21;4.32;;;1.20;;
62633;SDS011;48704;50.534;6.442;2023-07-30T11:45:47;7.03;;;1.40;;
62633;SDS011;48704;50.534;6.442;2023-07-30T11:48:13;7.63;;;1.30;;
62633;SDS011;48704;50.534;6.442;2023-07-30T11:50:48;8.10;;;1.27;;
62633;SDS011;48704;50.534;6.442;2023-07-30T11:53:15;4.03;;;1.10;;
62633;SDS011;48704;50.534;6.442;2023-07-30T11:55:41;4.22;;;1.45;;
62633;SDS011;48704;50.534;6.442;2023-07-30T11:58:08;4.30;;;1.55;;
62633;SDS011;48704;50.534;6.442;2023-07-30T12:00:35;6.90;;;1.10;;
62633;SDS011;48704;50.534;6.442;2023-07-30T12:03:02;4.20;;;1.02;;
62633;SDS011;48704;50.534;6.442;2023-07-30T12:05:35;8.50;;;1.50;;
62633;SDS011;48704;50.534;6.442;2023-07-30T12:08:02;7.32;;;1.58;;
62633;SDS011;48704;50.534;6.442;2023-07-30T12:10:41;2.28;;;1.25;;
62633;SDS011;48704;50.534;6.442;2023-07-30T12:13:17;4.38;;;1.00;;
62633;SDS011;48704;50.534;6.442;2023-07-30T12:15:44;5.22;;;1.33;;
62633;SDS011;48704;50.534;6.442;2023-07-30T12:18:16;5.90;;;1.30;;
62633;SDS011;48704;50.534;6.442;2023-07-30T12:20:42;4.95;;;1.25;;
62633;SDS011;48704;50.534;6.442;2023-07-30T12:23:07;4.20;;;1.05;;
62633;SDS011;48704;50.534;6.442;2023-07-30T12:25:33;7.32;;;1.60;;
62633;SDS011;48704;50.534;6.442;2023-07-30T12:27:59;2.97;;;1.20;;
62633;SDS011;48704;50.534;6.442;2023-07-30T12:30:25;3.55;;;1.38;;
62633;SDS011;48704;50.534;6.442;2023-07-30T12:32:51;6.78;;;1.50;;
62633;SDS011;48704;50.534;6.442;2023-07-30T12:35:17;5.53;;;1.60;;
62633;SDS011;48704;50.534;6.442;2023-07-30T12:37:42;5.25;;;1.33;;
62633;SDS011;48704;50.534;6.442;2023-07-30T12:40:07;4.13;;;1.25;;
62633;SDS011;48704;50.534;6.442;2023-07-30T12:42:33;3.85;;;1.17;;
62633;SDS011;48704;50.534;6.442;2023-07-30T12:44:58;5.85;;;2.15;;
62633;SDS011;48704;50.534;6.442;2023-07-30T12:47:23;4.45;;;1.10;;
62633;SDS011;48704;50.534;6.442;2023-07-30T12:49:49;3.33;;;1.10;;
62633;SDS011;48704;50.534;6.442;2023-07-30T12:52:14;3.40;;;1.35;;
62633;SDS011;48704;50.534;6.442;2023-07-30T12:54:39;4.68;;;1.48;;
62633;SDS011;48704;50.534;6.442;2023-07-30T12:57:05;4.57;;;1.30;;
62633;SDS011;48704;50.534;6.442;2023-07-30T12:59:31;4.57;;;1.92;;
62633;SDS011;48704;50.534;6.442;2023-07-30T13:01:56;5.90;;;1.40;;
62633;SDS011;48704;50.534;6.442;2023-07-30T13:04:23;3.53;;;1.17;;
62633;SDS011;48704;50.534;6.442;2023-07-30T13:06:51;2.55;;;1.00;;
62633;SDS011;48704;50.534;6.442;2023-07-30T13:09:17;4.20;;;1.30;;
62633;SDS011;48704;50.534;6.442;2023-07-30T13:11:42;6.43;;;1.52;;
62633;SDS011;48704;50.534;6.442;2023-07-30T13:14:07;4.78;;;1.13;;
62633;SDS011;48704;50.534;6.442;2023-07-30T13:16:33;5.63;;;1.20;;
62633;SDS011;48704;50.534;6.442;2023-07-30T13:18:58;5.80;;;1.38;;
62633;SDS011;48704;50.534;6.442;2023-07-30T13:21:23;7.05;;;1.60;;
62633;SDS011;48704;50.534;6.442;2023-07-30T13:23:50;3.80;;;1.23;;
62633;SDS011;48704;50.534;6.442;2023-07-30T13:26:15;5.32;;;1.10;;
62633;SDS011;48704;50.534;6.442;2023-07-30T13:28:41;3.10;;;1.40;;
62633;SDS011;48704;50.534;6.442;2023-07-30T13:31:06;4.40;;;1.42;;
62633;SDS011;48704;50.534;6.442;2023-07-30T13:33:31;5.13;;;1.27;;
62633;SDS011;48704;50.534;6.442;2023-07-30T13:35:57;4.78;;;1.20;;
62633;SDS011;48704;50.534;6.442;2023-07-30T13:38:22;6.22;;;1.25;;
62633;SDS011;48704;50.534;6.442;2023-07-30T13:40:47;4.57;;;1.13;;
62633;SDS011;48704;50.534;6.442;2023-07-30T13:43:13;4.13;;;1.13;;
62633;SDS011;48704;50.534;6.442;2023-07-30T13:45:38;3.10;;;1.30;;
62633;SDS011;48704;50.534;6.442;2023-07-30T13:48:04;4.22;;;1.25;;
62633;SDS011;48704;50.534;6.442;2023-07-30T13:50:29;4.75;;;1.50;;
62633;SDS011;48704;50.534;6.442;2023-07-30T13:52:54;4.75;;;1.05;;
62633;SDS011;48704;50.534;6.442;2023-07-30T13:55:20;2.88;;;1.02;;
62633;SDS011;48704;50.534;6.442;2023-07-30T13:57:46;3.58;;;1.38;;
62633;SDS011;48704;50.534;6.442;2023-07-30T14:00:12;4.03;;;1.10;;
62633;SDS011;48704;50.534;6.442;2023-07-30T14:02:41;3.85;;;1.30;;
62633;SDS011;48704;50.534;6.442;2023-07-30T14:05:10;5.13;;;1.13;;
62633;SDS011;48704;50.534;6.442;2023-07-30T14:07:36;8.13;;;1.50;;
62633;SDS011;48704;50.534;6.442;2023-07-30T14:10:02;7.43;;;1.45;;
62633;SDS011;48704;50.534;6.442;2023-07-30T14:12:30;9.15;;;1.45;;
62633;SDS011;48704;50.534;6.442;2023-07-30T14:14:56;4.05;;;1.50;;
62633;SDS011;48704;50.534;6.442;2023-07-30T14:17:24;6.00;;;1.27;;
62633;SDS011;48704;50.534;6.442;2023-07-30T14:19:49;5.90;;;1.40;;
62633;SDS011;48704;50.534;6.442;2023-07-30T14:22:15;5.50;;;1.30;;
62633;SDS011;48704;50.534;6.442;2023-07-30T14:24:43;5.10;;;1.80;;
62633;SDS011;48704;50.534;6.442;2023-07-30T14:27:09;5.70;;;1.40;;
62633;SDS011;48704;50.534;6.442;2023-07-30T14:29:35;3.70;;;1.30;;
62633;SDS011;48704;50.534;6.442;2023-07-30T14:32:01;4.63;;;1.30;;
62633;SDS011;48704;50.534;6.442;2023-07-30T14:34:26;5.13;;;1.60;;
62633;SDS011;48704;50.534;6.442;2023-07-30T14:36:51;4.03;;;1.27;;
62633;SDS011;48704;50.534;6.442;2023-07-30T14:39:19;5.18;;;1.30;;
62633;SDS011;48704;50.534;6.442;2023-07-30T14:41:45;6.63;;;1.65;;